Terminal Aerodrome Forecast
Issued by NWS

Home | Current Version | Previous Version | Text Only | Print | Product List | Glossary On
Versions: 1 2 3 4 5 6 7 8 9 10 11 12 13 14
000
FTUS46 KEKA 022340
TAFUKI
TAF
KUKI 022340Z 0300/0324 23009KT P6SM FEW060
     FM030300 02006KT P6SM SKC
     FM030500 16007KT P6SM SKC
     FM031000 16003KT P6SM BKN010
     FM031600 13007KT P6SM SCT012=

USA.gov is the U.S. government's official web portal to all federal, state and local government web resources and services.